Salem, KY (42078)

8:11 PM CDT on July 31, 2014 (GMT -0500)
Marion-Critt Cnty AP, Marion, (K5M9) Elev 650 ft | 37.34 °N, 88.11 °W | Change Station

Current weather conditions updated 36 minutes ago

Scattered Clouds
Scattered Clouds
76 °F
Feels Like 76 °F
N
4
Wind Variable Wind from WSW

Tomorrow is forecast to be Warmer than today.

Today
High -- | Low -- °F
--% Chance of Precip.
Yesterday
High -- | Low -- °F
Precip. -- in
5:56 AM 8:01 PM
Waxing Crescent, 22% visible
Pressure 30.06 in
Visibility 10.0 miles
Clouds Scattered Clouds 9500 ft
Dew Point 62 °F
Humidity 64%
Rainfall 0.00 in
Snow Depth Not available.
UV 0 out of 12
Pollen 6.90 out of 12
Air Quality Not available.
Flu Activity Not available.
METAR K5M9 010035Z AUTO 25003KT 10SM SCT095 24/17 A3006 RMK AO2 T02420169

More Conditions Fewer Conditions

Pressure 30.06 in
Visibility 10.0 miles
Clouds Scattered Clouds 9500 ft
Dew Point 62 °F
Humidity 64%
Rainfall 0.00 in
Snow Depth Not available.
UV 0 out of 12
Pollen 6.90 out of 12
Air Quality Not available.
Flu Activity Not available.
METAR K5M9 010035Z AUTO 25003KT 10SM SCT095 24/17 A3006 RMK AO2 T02420169

More Conditions Fewer Conditions

10-Day Weather Forecast

Almanac

Astronomy

Jul. 31, 2014 Rise Set
Actual Time 5:56 AM CDT 8:01 PM CDT
Civil Twilight 5:27 AM CDT 8:30 PM CDT
Nautical Twilight 4:52 AM CDT 9:05 PM CDT
Astronomical Twilight 4:14 AM CDT 9:43 PM CDT
Moon 10:17 AM CDT (7/31) 10:21 PM CDT (7/31)
Length of Visible Light 15h 02m
Length of Day
14h 04m
Tomorrow will be 1m 46s shorter.
Waxing Crescent, 22% of the Moon is Illuminated
Today
Waxing Crescent
Aug 3
First Quarter
Aug 10
Full
Aug 17
Last Quarter
Aug 25
New

Today's Extremes

State Highs State Lows

Community

WunderPhotos

Upload Photos

1,739,477 photos uploaded!

Nearby

Snow Depth

Station Depth Elevation
No new snow has been reported.

Earthquake Activity

City Distance Mag. Time & Date
No recent earthquake activity has been reported nearby.
Minimum magnitude displayed is 2.5.

Coastal Water Temperatures

Place Temperature
No Stations Reporting

Nearby Weather Stations

Station Location Temp. Heat Index Dew Point Humidity Wind Precip. Elev Updated Type
Calvert City, Calvert City, KY 76.6 °F 78 °F 64 °F 66% West  at  0.0 mph 0.00 in / hr 364 ft 8:11 PM CDT Rapid Fire
The Ridge Eddycreek, Eddyville, KY 74.0 °F 77 °F 60 °F 62% West  at  0.0 mph 0.00 in / hr 471 ft 8:11 PM CDT Rapid Fire
Paducah Ky, Paducah, KY 72.6 °F 75 °F 62 °F 70% SW  at  0.0 mph 0.00 in / hr 0 ft 8:11 PM CDT Rapid Fire
Sharpe, KY, Calvert City, KY 74.0 °F 75 °F 66 °F 76% NW  at  0.0 mph 0.00 in / hr 410 ft 8:11 PM CDT Rapid Fire
Moors Highway, Gilbertsville, KY 75.7 °F 78 °F 64 °F 66% NNE  at  0.0 mph 0.00 in / hr 472 ft 8:11 PM CDT Rapid Fire
Ricks Place Paducah, KY, Paducah, KY 77.2 °F 79 °F 66 °F 68% WNW  at  0.0 mph - / hr 351 ft 8:02 PM CDT Normal

Show More Stations Show Fewer Stations